Time;durP1;ratioP1;P1;durP2;ratioP2;P2;SDS_P1;SDS_P2;PMS_P1;PMS_P2;Temp;Humidity;BMP_temperature;BMP_pressure;BME280_temperature;BME280_humidity;BME280_pressure;Samples;Min_cycle;Max_cycle;Signal;HPM_P1;HPM_P2
2022/01/03 00:01:21;;;;;;;41.17;22.83;;;7.10;92.60;;;;;;4935411;29;20039;-80
2022/01/03 00:03:47;;;;;;;40.45;22.85;;;7.20;92.60;;;;;;4964983;28;20048;-80
2022/01/03 00:06:14;;;;;;;36.08;21.00;;;7.20;92.50;;;;;;4934680;29;20057;-80
2022/01/03 00:08:43;;;;;;;44.97;25.73;;;7.20;92.40;;;;;;4936200;29;20579;-80
2022/01/03 00:11:17;;;;;;;45.78;23.92;;;7.20;92.40;;;;;;4935957;29;20048;-79
2022/01/03 00:13:45;;;;;;;46.67;23.77;;;7.30;92.40;;;;;;4930298;29;20047;-79
2022/01/03 00:16:11;;;;;;;37.13;21.52;;;7.20;92.30;;;;;;4931115;29;20074;-79
2022/01/03 00:18:37;;;;;;;41.38;22.40;;;7.30;92.30;;;;;;4934417;29;20067;-79
2022/01/03 00:21:07;;;;;;;46.30;25.45;;;7.30;92.30;;;;;;4935664;29;20047;-80
2022/01/03 00:23:38;;;;;;;43.00;28.33;;;7.30;92.20;;;;;;4936405;29;20106;-79
2022/01/03 00:26:07;;;;;;;41.17;23.33;;;7.20;92.20;;;;;;4935331;29;20044;-79
2022/01/03 00:28:36;;;;;;;38.40;23.52;;;7.20;92.20;;;;;;4938911;29;20055;-79
2022/01/03 00:31:03;;;;;;;38.25;21.75;;;7.20;92.30;;;;;;4935838;29;20179;-79
2022/01/03 00:33:30;;;;;;;38.33;21.60;;;7.20;92.20;;;;;;4940014;29;20072;-80
2022/01/03 00:36:03;;;;;;;40.85;23.48;;;7.30;92.20;;;;;;4935209;29;20503;-79
2022/01/03 00:38:31;;;;;;;41.03;22.50;;;7.30;92.20;;;;;;4930785;29;20063;-79
2022/01/03 00:40:59;;;;;;;40.70;22.85;;;7.30;92.20;;;;;;4933987;29;20175;-80
2022/01/03 00:43:26;;;;;;;41.45;22.63;;;7.40;92.20;;;;;;4935720;29;20051;-80
2022/01/03 00:45:55;;;;;;;33.88;20.65;;;7.40;92.10;;;;;;4918299;29;20409;-81
2022/01/03 00:48:22;;;;;;;39.13;22.15;;;7.40;92.00;;;;;;4934596;29;20130;-81
2022/01/03 00:50:49;;;;;;;36.65;21.70;;;7.40;92.00;;;;;;4935241;29;20054;-80
2022/01/03 00:53:15;;;;;;;39.55;21.80;;;7.40;92.10;;;;;;4935643;29;20046;-81
2022/01/03 00:56:00;;;;;;;38.40;21.35;;;7.40;92.10;;;;;;4965813;28;20032;-81
2022/01/03 00:58:52;;;;;;;32.97;20.17;;;7.50;91.90;;;;;;4934739;29;20035;-81
2022/01/03 01:01:19;;;;;;;36.45;21.08;;;7.40;91.90;;;;;;4935234;29;20038;-81
2022/01/03 01:03:48;;;;;;;33.05;19.52;;;7.40;92.00;;;;;;4942891;29;20048;-81
2022/01/03 01:06:15;;;;;;;36.42;21.65;;;7.30;92.00;;;;;;4934309;29;20566;-80
2022/01/03 01:08:43;;;;;;;40.05;22.25;;;7.30;92.10;;;;;;4933601;29;20135;-80
2022/01/03 01:11:09;;;;;;;37.80;21.92;;;7.30;92.10;;;;;;4934685;29;20051;-80
2022/01/03 01:13:36;;;;;;;42.08;23.90;;;7.30;92.30;;;;;;4939633;29;20047;-80
2022/01/03 01:16:06;;;;;;;41.67;22.90;;;7.30;92.10;;;;;;4965660;28;20106;-80
2022/01/03 01:18:36;;;;;;;41.47;21.65;;;7.40;92.10;;;;;;4934828;29;20036;-80
2022/01/03 01:21:04;;;;;;;34.25;21.52;;;7.40;92.10;;;;;;4934833;29;20047;-79
2022/01/03 01:23:29;;;;;;;38.35;21.17;;;7.40;92.10;;;;;;4948177;29;20094;-78
2022/01/03 01:28:40;;;;;;;34.38;19.63;;;7.30;92.10;;;;;;4934579;29;20066;-79
2022/01/03 01:31:07;;;;;;;38.00;20.70;;;7.20;92.20;;;;;;4934699;29;20492;-79
2022/01/03 01:33:37;;;;;;;41.20;22.58;;;7.20;92.30;;;;;;4934036;29;20051;-79
2022/01/03 01:36:05;;;;;;;40.42;21.90;;;7.20;92.20;;;;;;4934725;29;20040;-79
2022/01/03 01:38:34;;;;;;;42.45;22.10;;;7.20;92.30;;;;;;4934512;29;20115;-79
2022/01/03 01:41:03;;;;;;;41.78;21.20;;;7.30;92.30;;;;;;4934507;29;20107;-79
2022/01/03 01:43:37;;;;;;;45.08;23.25;;;7.30;92.20;;;;;;4933064;29;20050;-79
2022/01/03 01:46:14;;;;;;;43.33;23.50;;;7.30;92.10;;;;;;4934711;29;20043;-79
2022/01/03 01:48:44;;;;;;;42.83;21.83;;;7.20;92.10;;;;;;4940255;29;20070;-78
2022/01/03 01:51:12;;;;;;;43.80;23.55;;;7.30;92.10;;;;;;4948072;29;20043;-79
2022/01/03 01:53:47;;;;;;;40.10;21.60;;;7.30;92.10;;;;;;4935990;29;20115;-79
2022/01/03 01:56:19;;;;;;;43.42;22.00;;;7.30;92.10;;;;;;4934257;29;20036;-79
2022/01/03 01:59:13;;;;;;;36.22;20.35;;;7.20;92.20;;;;;;4934490;29;20040;-79
2022/01/03 02:02:05;;;;;;;39.33;20.25;;;7.20;92.40;;;;;;4934490;29;20048;-79
2022/01/03 02:04:37;;;;;;;40.30;21.15;;;7.20;92.40;;;;;;4933878;29;20094;-79
2022/01/03 02:07:26;;;;;;;40.30;22.08;;;7.20;92.30;;;;;;4934284;29;20512;-79
2022/01/03 02:10:13;;;;;;;37.67;19.70;;;7.30;92.30;;;;;;4934170;29;20067;-79
2022/01/03 02:12:46;;;;;;;36.10;20.88;;;7.30;92.10;;;;;;4937327;29;20074;-79
2022/01/03 02:15:15;;;;;;;39.60;22.02;;;7.30;92.20;;;;;;4943791;29;20114;-79
2022/01/03 02:17:44;;;;;;;38.83;21.17;;;7.40;92.10;;;;;;4937946;29;20066;-79
2022/01/03 02:20:16;;;;;;;43.85;23.30;;;7.40;92.10;;;;;;4943081;29;20035;-79
2022/01/03 02:22:43;;;;;;;35.88;20.15;;;7.20;92.00;;;;;;4941329;29;20144;-79
2022/01/03 02:25:12;;;;;;;43.15;24.05;;;7.30;92.30;;;;;;4942717;29;20090;-79
2022/01/03 02:27:39;;;;;;;34.92;18.88;;;7.30;92.10;;;;;;4953103;29;20071;-79
2022/01/03 02:30:08;;;;;;;36.28;19.83;;;7.30;92.20;;;;;;4937287;29;20084;-79
2022/01/03 02:32:34;;;;;;;33.33;18.98;;;7.20;92.20;;;;;;4937272;29;20099;-78
2022/01/03 02:35:00;;;;;;;38.95;21.55;;;7.10;92.30;;;;;;4941537;29;20098;-78
2022/01/03 02:37:26;;;;;;;44.03;23.63;;;7.10;92.50;;;;;;4940653;29;20492;-79
2022/01/03 02:39:53;;;;;;;38.15;20.33;;;7.20;92.40;;;;;;4933890;29;20115;-78
2022/01/03 02:42:23;;;;;;;41.28;21.02;;;7.20;92.40;;;;;;4936828;29;20098;-79
2022/01/03 02:45:17;;;;;;;38.58;20.92;;;7.30;92.30;;;;;;4940651;29;20043;-79
2022/01/03 02:47:46;;;;;;;36.80;19.55;;;7.30;92.30;;;;;;4935611;29;20044;-79
2022/01/03 02:50:14;;;;;;;34.08;19.33;;;7.30;92.20;;;;;;4936518;29;20040;-80
2022/01/03 02:52:40;;;;;;;37.75;19.63;;;7.40;92.20;;;;;;4937620;29;20072;-80
2022/01/03 02:55:07;;;;;;;37.38;19.67;;;7.40;92.10;;;;;;4936694;29;20043;-80
2022/01/03 02:57:41;;;;;;;34.22;20.52;;;7.40;92.10;;;;;;4937042;29;20179;-80
2022/01/03 03:00:16;;;;;;;36.22;18.67;;;7.40;92.10;;;;;;4937487;29;20043;-81
2022/01/03 03:02:42;;;;;;;35.97;19.75;;;7.30;92.10;;;;;;4937127;29;20048;-81
2022/01/03 03:05:09;;;;;;;32.83;18.40;;;7.40;92.10;;;;;;4936493;29;20082;-79
2022/01/03 03:07:36;;;;;;;31.40;17.83;;;7.30;92.00;;;;;;4936809;29;20055;-79
2022/01/03 03:10:06;;;;;;;30.23;17.98;;;7.40;92.00;;;;;;4935764;29;20076;-78
2022/01/03 03:12:32;;;;;;;34.63;19.48;;;7.30;92.00;;;;;;4936710;29;20083;-79
2022/01/03 03:14:58;;;;;;;30.88;18.67;;;7.40;92.00;;;;;;4937104;29;20036;-78
2022/01/03 03:17:23;;;;;;;36.10;18.75;;;7.40;91.90;;;;;;4936983;29;20058;-79
2022/01/03 03:19:52;;;;;;;33.25;18.13;;;7.40;91.90;;;;;;4936712;29;20032;-80
2022/01/03 03:22:18;;;;;;;34.78;18.38;;;7.40;91.90;;;;;;4936417;29;20055;-80
2022/01/03 03:24:44;;;;;;;37.03;19.70;;;7.40;91.90;;;;;;4936959;29;20032;-78
2022/01/03 03:27:11;;;;;;;32.72;18.98;;;7.40;91.80;;;;;;4936960;29;20048;-79
2022/01/03 03:29:46;;;;;;;32.85;18.88;;;7.40;91.70;;;;;;4967331;28;20051;-80
2022/01/03 03:32:11;;;;;;;27.92;16.70;;;7.40;91.80;;;;;;4936736;29;20040;-79
2022/01/03 03:34:37;;;;;;;29.58;16.95;;;7.30;91.80;;;;;;4936407;29;20548;-79
2022/01/03 03:37:03;;;;;;;35.28;18.52;;;7.30;92.00;;;;;;4936708;29;20720;-79
2022/01/03 03:39:31;;;;;;;31.88;18.15;;;7.30;91.90;;;;;;4936756;29;20114;-80
2022/01/03 03:41:57;;;;;;;28.25;15.95;;;7.30;91.90;;;;;;4936336;29;20119;-80
2022/01/03 03:44:23;;;;;;;29.95;16.83;;;7.30;91.80;;;;;;4936380;29;20111;-79
2022/01/03 03:46:48;;;;;;;27.67;15.70;;;7.30;91.80;;;;;;4936402;29;20054;-79
2022/01/03 03:49:14;;;;;;;42.83;22.90;;;7.30;92.00;;;;;;4935912;29;20174;-79
2022/01/03 03:51:39;;;;;;;33.13;17.42;;;7.30;91.80;;;;;;4935824;29;20059;-79
2022/01/03 03:54:05;;;;;;;30.67;17.55;;;7.30;92.00;;;;;;4935886;29;20548;-79
2022/01/03 03:56:31;;;;;;;30.05;17.05;;;7.30;92.00;;;;;;4951784;28;20039;-78
2022/01/03 03:58:57;;;;;;;29.88;16.73;;;7.30;91.90;;;;;;4943630;28;20039;-79
2022/01/03 04:01:23;;;;;;;36.47;17.92;;;7.40;91.90;;;;;;4924097;29;20408;-78
2022/01/03 04:03:49;;;;;;;32.90;17.58;;;7.40;91.80;;;;;;4935497;29;20087;-78
2022/01/03 04:06:15;;;;;;;27.73;15.82;;;7.30;91.90;;;;;;4935058;29;20047;-78
2022/01/03 04:08:40;;;;;;;29.73;16.45;;;7.30;91.90;;;;;;4936025;29;20070;-79
2022/01/03 04:11:06;;;;;;;28.45;16.00;;;7.30;92.00;;;;;;4935046;29;20574;-79
2022/01/03 04:13:32;;;;;;;28.73;16.60;;;7.30;92.00;;;;;;4935677;29;20043;-79
2022/01/03 04:15:57;;;;;;;30.70;16.13;;;7.30;92.00;;;;;;4935244;29;20046;-79
2022/01/03 04:18:23;;;;;;;30.75;17.67;;;7.40;91.90;;;;;;4946609;29;20038;-79
2022/01/03 04:20:49;;;;;;;32.15;18.27;;;7.40;91.90;;;;;;4935929;29;20048;-79
2022/01/03 04:23:16;;;;;;;39.65;21.00;;;7.40;91.80;;;;;;4937553;29;20074;-80
2022/01/03 04:25:41;;;;;;;36.08;18.58;;;7.30;91.60;;;;;;4935421;29;20073;-79
2022/01/03 04:28:07;;;;;;;36.13;20.33;;;7.20;91.80;;;;;;4936241;29;20040;-79
2022/01/03 04:30:33;;;;;;;36.53;21.05;;;7.20;91.80;;;;;;4935596;29;20090;-78
2022/01/03 04:32:58;;;;;;;43.72;22.35;;;7.00;92.00;;;;;;4934089;29;20408;-79
2022/01/03 04:35:24;;;;;;;36.75;18.75;;;6.90;92.20;;;;;;4935145;29;20435;-79
2022/01/03 04:37:50;;;;;;;29.13;16.95;;;6.90;92.50;;;;;;4935298;29;20040;-80
2022/01/03 04:40:15;;;;;;;30.13;16.58;;;7.00;92.30;;;;;;4935598;29;20040;-79
2022/01/03 04:42:41;;;;;;;35.25;18.60;;;7.00;92.30;;;;;;4935171;29;20043;-79
2022/01/03 04:45:07;;;;;;;31.63;16.65;;;7.10;92.20;;;;;;4942259;29;20039;-79
2022/01/03 04:47:33;;;;;;;37.03;19.75;;;7.10;92.10;;;;;;4933169;29;20044;-79
2022/01/03 04:49:58;;;;;;;27.33;15.73;;;7.10;91.90;;;;;;4935072;29;20039;-78
2022/01/03 04:52:24;;;;;;;29.13;17.00;;;7.10;92.20;;;;;;4935425;29;20036;-78
2022/01/03 04:54:50;;;;;;;33.38;18.35;;;7.10;92.10;;;;;;4934790;29;20142;-78
2022/01/03 04:57:16;;;;;;;31.08;17.45;;;7.10;92.10;;;;;;4934782;29;20046;-79
2022/01/03 04:59:41;;;;;;;28.75;16.85;;;7.10;92.10;;;;;;4934746;29;20103;-80
2022/01/03 05:02:07;;;;;;;31.63;18.00;;;7.10;92.00;;;;;;4933726;29;20036;-80
2022/01/03 05:04:34;;;;;;;32.03;17.45;;;7.00;92.20;;;;;;4934505;29;21784;-79
2022/01/03 05:07:00;;;;;;;29.63;17.23;;;7.00;92.20;;;;;;4935214;29;20106;-80
2022/01/03 05:09:25;;;;;;;30.88;16.38;;;7.10;92.10;;;;;;4935121;29;20504;-80
2022/01/03 05:11:51;;;;;;;31.40;18.20;;;7.20;92.00;;;;;;4934464;29;20500;-80
2022/01/03 05:14:17;;;;;;;33.45;19.33;;;7.20;92.10;;;;;;4935103;29;20070;-80
2022/01/03 05:16:42;;;;;;;36.67;20.42;;;7.20;91.90;;;;;;4933339;29;20131;-80
2022/01/03 05:19:08;;;;;;;36.42;19.05;;;7.20;92.00;;;;;;4934704;29;20043;-79
2022/01/03 05:21:34;;;;;;;32.50;17.15;;;7.20;92.00;;;;;;4936648;29;20044;-79
2022/01/03 05:23:59;;;;;;;35.60;18.73;;;7.20;92.00;;;;;;4934894;29;20090;-79
2022/01/03 05:26:25;;;;;;;35.78;19.80;;;7.20;92.00;;;;;;4937859;29;20489;-79
2022/01/03 05:28:51;;;;;;;31.92;18.52;;;7.20;92.00;;;;;;4934522;29;20039;-79
2022/01/03 05:31:17;;;;;;;48.28;23.98;;;7.20;92.00;;;;;;4934739;29;20044;-79
2022/01/03 05:33:42;;;;;;;37.88;19.63;;;7.00;92.10;;;;;;4934445;29;20408;-80
2022/01/03 05:36:08;;;;;;;41.67;19.80;;;7.00;92.30;;;;;;4934727;29;20040;-79
2022/01/03 05:38:34;;;;;;;36.53;20.05;;;7.10;92.30;;;;;;4941672;29;20099;-80
2022/01/03 05:41:00;;;;;;;39.25;20.13;;;7.20;92.20;;;;;;4934742;29;20048;-79
2022/01/03 05:43:25;;;;;;;40.75;21.05;;;7.20;92.10;;;;;;4935697;29;20566;-80
2022/01/03 05:45:51;;;;;;;33.83;17.23;;;7.30;91.90;;;;;;4934557;29;20047;-80
2022/01/03 05:48:17;;;;;;;39.65;20.50;;;7.20;91.90;;;;;;4938222;29;20036;-81
2022/01/03 05:50:42;;;;;;;43.13;21.05;;;7.20;91.90;;;;;;4939154;29;20043;-80
2022/01/03 05:53:08;;;;;;;57.10;27.90;;;7.20;91.90;;;;;;4938178;29;20551;-79
2022/01/03 05:55:40;;;;;;;38.80;21.00;;;7.10;91.80;;;;;;4939412;29;20043;-78
2022/01/03 05:58:06;;;;;;;35.67;20.13;;;7.10;92.10;;;;;;4939036;29;20110;-78
2022/01/03 06:00:31;;;;;;;39.03;21.95;;;7.10;92.00;;;;;;4939480;29;20509;-78
2022/01/03 06:02:58;;;;;;;43.13;21.75;;;7.00;92.00;;;;;;4938756;29;20046;-78
2022/01/03 06:08:03;;;;;;;38.75;21.52;;;7.20;92.00;;;;;;4937779;29;20369;-79
2022/01/03 06:10:30;;;;;;;64.30;31.75;;;7.30;91.80;;;;;;4940342;29;20063;-79
2022/01/03 06:12:55;;;;;;;41.88;21.20;;;7.10;91.50;;;;;;4936520;29;20146;-79
2022/01/03 06:15:25;;;;;;;36.30;21.00;;;7.10;91.90;;;;;;4938210;29;20040;-79
2022/01/03 06:17:52;;;;;;;41.00;19.33;;;7.10;91.90;;;;;;4920470;29;20036;-77
2022/01/03 06:20:18;;;;;;;40.03;21.13;;;7.20;91.80;;;;;;4941427;29;20279;-77
2022/01/03 06:22:44;;;;;;;38.80;20.65;;;7.20;91.70;;;;;;4937545;29;20044;-76
2022/01/03 06:25:10;;;;;;;45.33;23.08;;;7.20;91.60;;;;;;4948880;29;20083;-76
2022/01/03 06:27:37;;;;;;;41.65;20.95;;;7.30;91.70;;;;;;4940323;29;20031;-75
2022/01/03 06:30:05;;;;;;;41.22;21.83;;;7.40;91.50;;;;;;4942063;29;20044;-76
2022/01/03 06:32:31;;;;;;;45.65;23.02;;;7.40;91.40;;;;;;4938246;29;20359;-77
2022/01/03 06:34:56;;;;;;;71.13;28.30;;;7.40;91.30;;;;;;4938200;29;20047;-76
2022/01/03 06:37:22;;;;;;;47.70;23.38;;;7.40;91.20;;;;;;4920564;29;20028;-75
2022/01/03 06:39:48;;;;;;;46.60;22.83;;;7.20;91.30;;;;;;4938730;29;20052;-76
2022/01/03 06:42:13;;;;;;;43.22;22.48;;;7.20;91.40;;;;;;4937050;29;20044;-76
2022/01/03 06:44:39;;;;;;;44.45;22.73;;;7.30;91.40;;;;;;4949612;29;20059;-76
2022/01/03 06:47:05;;;;;;;45.55;21.02;;;7.30;91.40;;;;;;4937978;29;20519;-76
2022/01/03 06:49:30;;;;;;;52.35;23.38;;;7.30;91.40;;;;;;4937545;29;20035;-76
2022/01/03 06:51:56;;;;;;;42.78;20.98;;;7.30;91.20;;;;;;4937162;29;20381;-76
2022/01/03 06:54:22;;;;;;;79.22;32.67;;;7.20;91.30;;;;;;4937628;29;20035;-76
2022/01/03 06:56:47;;;;;;;105.43;42.30;;;7.10;91.40;;;;;;4936031;29;20043;-76
2022/01/03 06:59:13;;;;;;;57.63;27.75;;;6.80;91.60;;;;;;4941460;29;20057;-77
2022/01/03 07:01:39;;;;;;;52.33;24.02;;;6.70;92.50;;;;;;4940297;29;20388;-77
2022/01/03 07:04:05;;;;;;;56.40;25.70;;;6.80;92.40;;;;;;4934943;29;20654;-76
2022/01/03 07:06:32;;;;;;;52.70;24.95;;;6.80;92.30;;;;;;4941742;29;20090;-76
2022/01/03 07:08:58;;;;;;;86.93;35.67;;;6.90;92.30;;;;;;4946761;29;20047;-76
2022/01/03 07:11:24;;;;;;;61.13;25.45;;;6.90;92.20;;;;;;4936092;29;20043;-76
2022/01/03 07:13:54;;;;;;;56.95;25.88;;;6.80;92.50;;;;;;4922672;29;20095;-77
2022/01/03 07:19:06;;;;;;;61.63;24.55;;;6.90;92.30;;;;;;4935114;29;20074;-78
2022/01/03 07:21:34;;;;;;;80.13;32.20;;;7.00;92.20;;;;;;4934268;29;20115;-77
2022/01/03 07:23:59;;;;;;;66.80;27.48;;;7.00;92.10;;;;;;4940985;29;20051;-78
2022/01/03 07:26:35;;;;;;;64.18;27.77;;;7.00;92.30;;;;;;4933496;29;20091;-77
2022/01/03 07:29:01;;;;;;;69.50;30.20;;;7.00;92.30;;;;;;4935590;29;20044;-78
2022/01/03 07:31:27;;;;;;;60.33;25.83;;;7.10;92.10;;;;;;4941724;29;20054;-78
2022/01/03 07:33:53;;;;;;;47.33;21.05;;;7.10;92.20;;;;;;4934568;29;20040;-80
2022/01/03 07:36:19;;;;;;;69.35;28.42;;;7.20;95.00;;;;;;4932513;29;20036;-81
2022/01/03 07:38:46;;;;;;;74.03;32.10;;;7.50;93.50;;;;;;4939947;29;20046;-79
2022/01/03 07:41:12;;;;;;;56.55;26.40;;;7.30;92.10;;;;;;4939086;29;20130;-80
2022/01/03 07:43:38;;;;;;;55.83;28.63;;;7.30;92.30;;;;;;4936565;29;20044;-80
2022/01/03 07:46:04;;;;;;;63.78;30.42;;;7.40;92.40;;;;;;4938222;29;20508;-79
2022/01/03 07:48:30;;;;;;;58.22;29.50;;;7.50;92.30;;;;;;4936008;29;20119;-79
2022/01/03 07:50:56;;;;;;;66.82;31.65;;;7.60;92.10;;;;;;4936416;29;20036;-79
2022/01/03 07:53:22;;;;;;;67.32;31.35;;;7.70;91.90;;;;;;4936639;29;20062;-83
2022/01/03 07:55:47;;;;;;;57.95;28.52;;;7.70;91.80;;;;;;4936188;29;20043;-78
2022/01/03 07:58:16;;;;;;;60.60;30.58;;;7.60;91.80;;;;;;4936192;29;20036;-79
2022/01/03 08:00:43;;;;;;;60.22;27.90;;;7.60;91.60;;;;;;4936531;29;20051;-80
2022/01/03 08:03:09;;;;;;;59.22;30.10;;;7.60;91.70;;;;;;4935246;29;20058;-80
2022/01/03 08:05:34;;;;;;;55.35;30.13;;;7.70;91.70;;;;;;4939394;29;20126;-81
2022/01/03 08:08:00;;;;;;;67.05;35.58;;;7.70;91.60;;;;;;4936527;29;20047;-80
2022/01/03 08:10:26;;;;;;;51.70;30.45;;;7.60;91.20;;;;;;4936394;29;20126;-81
2022/01/03 08:12:52;;;;;;;52.30;30.27;;;7.60;91.50;;;;;;4949181;29;20043;-82
2022/01/03 08:15:17;;;;;;;52.30;29.65;;;7.60;91.50;;;;;;4935161;29;20039;-82
2022/01/03 08:17:46;;;;;;;57.03;32.25;;;7.70;91.50;;;;;;4937345;29;20074;-79
2022/01/03 08:20:13;;;;;;;50.72;28.25;;;7.70;91.40;;;;;;4941279;29;20107;-79
2022/01/03 08:22:38;;;;;;;50.45;28.77;;;7.70;91.40;;;;;;4943398;29;20047;-82
2022/01/03 08:25:05;;;;;;;49.53;29.38;;;7.70;91.40;;;;;;4944768;29;20050;-81
2022/01/03 08:27:30;;;;;;;53.58;31.70;;;7.80;91.50;;;;;;4938342;29;20408;-81
2022/01/03 08:29:56;;;;;;;50.55;30.52;;;7.80;91.40;;;;;;4937980;29;20044;-82
2022/01/03 08:32:22;;;;;;;49.63;30.38;;;7.80;91.20;;;;;;4953235;29;20047;-81
2022/01/03 08:34:48;;;;;;;52.67;31.98;;;7.90;91.20;;;;;;4947617;29;20040;-82
2022/01/03 08:37:14;;;;;;;53.65;30.25;;;7.90;91.20;;;;;;4920294;29;20036;-80
2022/01/03 08:39:39;;;;;;;53.55;30.98;;;8.00;91.10;;;;;;4936573;29;20163;-82
2022/01/03 08:42:05;;;;;;;57.05;32.55;;;8.00;91.00;;;;;;4937599;29;20496;-81
2022/01/03 08:44:31;;;;;;;60.70;34.17;;;8.00;91.10;;;;;;4937527;29;20432;-82
2022/01/03 08:46:57;;;;;;;55.22;32.17;;;8.00;90.90;;;;;;4920447;29;20039;-82
2022/01/03 08:49:22;;;;;;;65.35;34.13;;;8.10;91.00;;;;;;4937162;29;20032;-82
2022/01/03 08:51:48;;;;;;;61.55;34.78;;;8.10;91.00;;;;;;4949220;29;20058;-83
2022/01/03 08:54:14;;;;;;;68.72;36.30;;;8.10;91.00;;;;;;4949040;28;20028;-84
2022/01/03 08:56:40;;;;;;;64.70;34.83;;;8.00;91.00;;;;;;4952267;29;20115;-84
2022/01/03 08:59:06;;;;;;;54.33;33.03;;;8.10;91.10;;;;;;4935637;29;20040;-83
2022/01/03 09:01:32;;;;;;;51.47;32.15;;;8.10;91.10;;;;;;4937965;29;20042;-84
2022/01/03 09:03:58;;;;;;;61.17;37.42;;;8.20;91.00;;;;;;4938030;29;20039;-84
2022/01/03 09:06:24;;;;;;;44.95;30.08;;;8.00;90.60;;;;;;4966376;28;20395;-83
2022/01/03 09:08:49;;;;;;;50.75;31.60;;;7.90;90.90;;;;;;4945338;29;20043;-83
2022/01/03 09:11:16;;;;;;;47.00;29.83;;;8.00;91.10;;;;;;4939734;29;20051;-81
2022/01/03 09:13:42;;;;;;;45.88;29.23;;;8.00;91.00;;;;;;4963052;28;20034;-80
2022/01/03 09:16:07;;;;;;;53.20;35.92;;;8.00;90.90;;;;;;4975309;28;20375;-81
2022/01/03 09:18:36;;;;;;;38.95;26.85;;;8.00;90.70;;;;;;4958200;28;20042;-81
2022/01/03 09:21:02;;;;;;;43.83;27.25;;;8.10;90.70;;;;;;4949209;28;20130;-81
2022/01/03 09:23:32;;;;;;;49.80;31.27;;;8.10;90.60;;;;;;4957811;28;20034;-80
2022/01/03 09:28:56;;;;;;;47.38;30.23;;;8.10;90.70;;;;;;4946732;28;20065;-80
2022/01/03 09:31:30;;;;;;;50.67;30.23;;;8.10;90.70;;;;;;4955090;28;20035;-80
2022/01/03 09:34:00;;;;;;;49.80;31.48;;;8.20;90.80;;;;;;4954895;28;20315;-80
2022/01/03 09:36:27;;;;;;;51.58;32.75;;;8.20;90.80;;;;;;4954568;28;20091;-80
2022/01/03 09:38:54;;;;;;;52.10;32.10;;;8.30;90.80;;;;;;4937718;29;20078;-81
2022/01/03 09:41:21;;;;;;;66.53;40.55;;;8.40;90.70;;;;;;4954917;28;20031;-80
2022/01/03 09:44:02;;;;;;;50.92;31.45;;;8.40;90.30;;;;;;4955760;28;20480;-80
2022/01/03 09:46:46;;;;;;;46.45;30.73;;;8.40;90.30;;;;;;4952604;29;20114;-80
2022/01/03 09:49:13;;;;;;;49.78;33.55;;;8.30;90.40;;;;;;4937626;29;20553;-80
2022/01/03 09:51:40;;;;;;;43.33;29.65;;;8.10;90.40;;;;;;4952007;28;20480;-80
2022/01/03 09:54:10;;;;;;;61.78;40.03;;;8.20;90.60;;;;;;4953830;28;20058;-81
2022/01/03 09:56:39;;;;;;;38.78;28.42;;;8.10;90.40;;;;;;4954543;28;20403;-84
2022/01/03 09:59:06;;;;;;;48.78;34.75;;;8.10;90.60;;;;;;4937865;29;20035;-84
2022/01/03 10:01:33;;;;;;;41.53;28.48;;;8.20;90.50;;;;;;4956514;28;20042;-83
2022/01/03 10:04:03;;;;;;;40.50;29.05;;;8.20;90.60;;;;;;4953643;28;20070;-83
2022/01/03 10:06:31;;;;;;;41.35;29.30;;;8.30;90.50;;;;;;4953812;28;20087;-83
2022/01/03 10:08:57;;;;;;;36.45;27.20;;;8.30;90.40;;;;;;4937683;29;20142;-81
2022/01/03 10:11:24;;;;;;;38.40;28.35;;;8.30;90.50;;;;;;4960079;28;20118;-81
2022/01/03 10:13:50;;;;;;;37.95;27.25;;;8.30;90.50;;;;;;4955713;28;20033;-81
2022/01/03 10:16:16;;;;;;;36.42;26.30;;;8.40;90.50;;;;;;4942606;28;20545;-84
2022/01/03 10:18:46;;;;;;;39.83;27.05;;;8.50;90.40;;;;;;4956317;28;20039;-82
2022/01/03 10:21:11;;;;;;;37.22;26.80;;;8.50;90.30;;;;;;4955250;28;20077;-85
2022/01/03 10:23:55;;;;;;;37.25;26.80;;;8.50;90.30;;;;;;4966272;28;20448;-83
2022/01/03 10:26:21;;;;;;;40.33;27.98;;;8.60;90.30;;;;;;4958874;28;20039;-84
2022/01/03 10:28:47;;;;;;;38.65;28.90;;;8.60;90.20;;;;;;4938597;29;20364;-85
2022/01/03 10:31:20;;;;;;;41.05;28.60;;;8.60;90.20;;;;;;4956137;28;20071;-84
2022/01/03 10:33:47;;;;;;;37.58;27.58;;;8.70;90.20;;;;;;4958972;29;20094;-84
2022/01/03 10:36:28;;;;;;;47.45;35.42;;;8.70;90.10;;;;;;4966521;28;20472;-84
2022/01/03 10:38:54;;;;;;;;;;;8.70;89.40;;;;;;4959994;28;20074;-84
2022/01/03 10:41:23;;;;;;;33.58;24.20;;;8.70;90.00;;;;;;4942258;29;19906;-83
2022/01/03 10:43:54;;;;;;;41.40;28.08;;;8.80;90.10;;;;;;4949004;28;20043;-84
2022/01/03 10:46:21;;;;;;;40.13;28.92;;;8.90;90.10;;;;;;4958414;28;20043;-84
2022/01/03 10:48:48;;;;;;;37.63;28.00;;;9.00;90.10;;;;;;4965766;28;20396;-83
2022/01/03 10:51:25;;;;;;;43.70;31.15;;;9.00;89.90;;;;;;4978075;28;20448;-83
2022/01/03 10:53:53;;;;;;;40.05;29.50;;;9.00;89.50;;;;;;4967724;28;20050;-83
2022/01/03 10:56:35;;;;;;;33.17;25.75;;;9.10;89.80;;;;;;4955389;29;20435;-82
2022/01/03 10:59:03;;;;;;;43.58;32.75;;;9.10;89.60;;;;;;4958455;28;20494;-82
2022/01/03 11:01:34;;;;;;;56.33;39.90;;;9.10;89.50;;;;;;4957526;28;20118;-81
2022/01/03 11:04:02;;;;;;;39.90;30.30;;;9.00;88.70;;;;;;4957815;28;20042;-81
2022/01/03 11:11:41;;;;;;;40.90;30.60;;;8.90;90.00;;;;;;4966488;28;20041;-81
2022/01/03 11:14:08;;;;;;;38.25;29.48;;;8.80;90.10;;;;;;4958388;29;20396;-81
2022/01/03 11:16:42;;;;;;;50.22;36.70;;;8.90;90.20;;;;;;4958863;29;20384;-82
2022/01/03 11:19:09;;;;;;;39.15;30.25;;;8.80;90.10;;;;;;4940627;29;20070;-81
2022/01/03 11:21:44;;;;;;;39.38;29.95;;;9.00;90.10;;;;;;4941058;29;20039;-81
2022/01/03 11:24:14;;;;;;;39.25;30.92;;;9.10;90.10;;;;;;4969302;28;20038;-81
2022/01/03 11:26:49;;;;;;;38.38;29.25;;;9.10;89.90;;;;;;4963861;28;20063;-81
2022/01/03 11:29:16;;;;;;;35.58;27.98;;;9.20;89.90;;;;;;4941471;29;20051;-81
2022/01/03 11:31:42;;;;;;;39.40;30.90;;;9.20;89.70;;;;;;4957643;29;20071;-81
2022/01/03 11:34:09;;;;;;;40.65;30.13;;;9.30;89.70;;;;;;4950559;28;20074;-82
2022/01/03 11:36:37;;;;;;;39.47;30.50;;;9.40;89.20;;;;;;4977838;28;20045;-82
2022/01/03 11:39:10;;;;;;;41.65;32.05;;;9.40;89.30;;;;;;4959809;28;20042;-81
2022/01/03 11:41:38;;;;;;;51.42;37.72;;;9.50;89.20;;;;;;4976920;28;20082;-81
2022/01/03 11:44:04;;;;;;;44.97;33.92;;;9.50;88.50;;;;;;4966518;28;20082;-81
2022/01/03 11:46:31;;;;;;;41.28;31.10;;;9.40;89.00;;;;;;4957474;29;20043;-80
2022/01/03 11:48:57;;;;;;;43.78;32.58;;;9.40;89.10;;;;;;4959175;28;20047;-81
2022/01/03 11:51:29;;;;;;;39.67;31.70;;;9.40;89.10;;;;;;4939244;29;20054;-78
2022/01/03 11:53:56;;;;;;;42.33;32.30;;;9.50;89.10;;;;;;4952201;28;20031;-79
2022/01/03 11:56:25;;;;;;;40.47;30.45;;;9.60;89.00;;;;;;4958646;28;20039;-79
2022/01/03 11:59:21;;;;;;;42.58;32.40;;;9.60;88.90;;;;;;4938492;29;20498;-78
2022/01/03 12:04:39;;;;;;;38.77;29.93;;;9.70;88.60;;;;;;4931696;28;20073;-80
2022/01/03 12:07:15;;;;;;;42.22;30.98;;;9.80;88.40;;;;;;4937330;28;20286;-83
2022/01/03 12:09:46;;;;;;;41.80;30.58;;;9.70;88.20;;;;;;4938434;28;20111;-84
2022/01/03 12:12:33;;;;;;;44.40;32.08;;;9.70;88.30;;;;;;4928070;29;20523;-84
2022/01/03 12:15:02;;;;;;;41.00;31.33;;;9.70;88.40;;;;;;4927556;29;20054;-83
2022/01/03 12:17:46;;;;;;;48.45;34.95;;;9.70;88.40;;;;;;4930549;29;20039;-81
2022/01/03 12:20:13;;;;;;;44.90;32.75;;;9.70;88.00;;;;;;4929849;28;20795;-80
2022/01/03 12:22:48;;;;;;;46.47;32.47;;;9.70;88.30;;;;;;4922337;29;20115;-80
2022/01/03 12:25:25;;;;;;;41.13;31.52;;;9.80;88.40;;;;;;4944830;28;20105;-80
2022/01/03 12:27:56;;;;;;;42.53;31.27;;;9.80;88.40;;;;;;4956200;29;20038;-80
2022/01/03 12:30:25;;;;;;;42.03;31.50;;;9.80;88.30;;;;;;4944942;28;20107;-81
2022/01/03 12:33:08;;;;;;;40.55;31.52;;;9.90;88.30;;;;;;4956425;28;20024;-82
2022/01/03 12:35:42;;;;;;;40.15;31.15;;;9.90;88.20;;;;;;4948101;29;20047;-81
2022/01/03 12:38:12;;;;;;;40.53;30.42;;;9.90;88.30;;;;;;4946236;29;20502;-82
2022/01/03 12:40:56;;;;;;;39.70;31.00;;;9.90;88.30;;;;;;4974993;28;20396;-82
2022/01/03 12:43:47;;;;;;;42.40;31.65;;;10.00;88.30;;;;;;4956430;28;20104;-82
2022/01/03 12:46:20;;;;;;;42.42;32.22;;;10.00;88.10;;;;;;4956656;29;20436;-82
2022/01/03 12:48:46;;;;;;;42.45;32.17;;;10.00;88.10;;;;;;4939757;29;20046;-82
2022/01/03 12:51:15;;;;;;;45.10;32.63;;;10.00;88.10;;;;;;4956152;29;20449;-82
2022/01/03 12:53:47;;;;;;;40.25;30.63;;;10.00;88.00;;;;;;4943402;28;20030;-83
2022/01/03 12:56:26;;;;;;;41.08;31.15;;;10.10;88.00;;;;;;4975318;28;20054;-81
2022/01/03 12:58:55;;;;;;;39.38;30.90;;;10.00;88.00;;;;;;4970866;28;20046;-83
2022/01/03 13:01:27;;;;;;;40.97;31.40;;;10.00;88.00;;;;;;4961847;28;20039;-82